Time;durP1;ratioP1;P1;durP2;ratioP2;P2;SDS_P1;SDS_P2;PMS_P1;PMS_P2;Temp;Humidity;BMP_temperature;BMP_pressure;BME280_temperature;BME280_humidity;BME280_pressure;Samples;Min_cycle;Max_cycle;Signal;HPM_P1;HPM_P2
2021/12/17 00:00:49;;;;;;;;;57.50;48.00;;;;;8.40;70.46;103584.00;5050758;28;49696;-70
2021/12/17 00:03:22;;;;;;;;;54.75;44.75;;;;;8.38;69.64;103578.63;5050890;28;49817;-70
2021/12/17 00:08:17;;;;;;;;;61.00;49.50;;;;;7.87;70.48;103497.13;5050735;28;49585;-71
2021/12/17 00:10:44;;;;;;;;;57.75;47.25;;;;;8.32;69.84;103588.63;5050536;28;49921;-71
2021/12/17 00:13:10;;;;;;;;;61.75;50.00;;;;;8.28;70.63;103587.47;5048979;28;49920;-71
2021/12/17 00:15:37;;;;;;;;;66.75;51.00;;;;;8.27;70.85;103587.34;5049925;28;50472;-71
2021/12/17 00:18:11;;;;;;;;;57.50;47.00;;;;;8.27;70.94;103579.50;5049801;28;49717;-70
2021/12/17 00:53:16;;;;;;;;;67.25;53.00;;;;;8.00;70.99;103571.38;5049521;28;49691;-69
2021/12/17 00:55:42;;;;;;;;;62.50;50.75;;;;;8.01;70.96;103573.22;5049601;28;49647;-68
2021/12/17 00:58:07;;;;;;;;;58.00;45.75;;;;;8.00;70.36;103565.25;5048914;28;50308;-70
2021/12/17 01:00:33;;;;;;;;;57.25;46.75;;;;;7.98;71.61;103559.91;5048914;28;49857;-69
2021/12/17 01:02:58;;;;;;;;;47.75;40.25;;;;;7.92;71.31;103548.09;5049487;28;49832;-68
2021/12/17 01:05:28;;;;;;;;;56.75;45.50;;;;;8.00;71.10;103560.00;5050263;28;49666;-68
2021/12/17 01:07:56;;;;;;;;;51.00;43.50;;;;;7.93;71.33;103548.19;5048669;28;50047;-69
2021/12/17 01:10:32;;;;;;;;;56.75;45.50;;;;;7.96;71.92;103553.66;5050330;28;49787;-69
2021/12/17 01:12:58;;;;;;;;;56.75;48.25;;;;;7.97;71.56;103565.94;5051832;28;49807;-69
2021/12/17 01:15:25;;;;;;;;;53.50;43.00;;;;;7.97;72.05;103557.16;5053044;28;50013;-69
2021/12/17 01:17:56;;;;;;;;;57.25;47.25;;;;;8.00;71.54;103557.38;5053522;28;49755;-69
2021/12/17 01:20:34;;;;;;;;;61.00;48.00;;;;;7.99;71.33;103563.41;5034674;28;50023;-69
2021/12/17 01:23:17;;;;;;;;;62.50;48.25;;;;;7.97;70.98;103565.03;5053489;28;49867;-69
2021/12/17 01:35:20;;;;;;;;;17.00;7.75;;;;;7.95;70.73;103559.69;5052132;28;49759;-69
2021/12/17 01:36:44;;;;;;;;;66.50;51.50;;;;;7.86;70.72;103552.84;5053290;28;49774;-69
2021/12/17 01:44:23;;;;;;;;;63.25;50.00;;;;;7.47;70.90;103495.00;5052543;28;49976;-68
2021/12/17 01:46:52;;;;;;;;;62.50;49.25;;;;;7.72;71.08;103541.31;5053267;28;49609;-69
2021/12/17 02:00:06;;;;;;;;;60.75;49.00;;;;;7.67;71.20;103550.50;5052556;28;50209;-68
2021/12/17 02:02:40;;;;;;;;;69.25;53.25;;;;;7.70;70.64;103556.88;5052527;28;50542;-69
2021/12/17 02:05:06;;;;;;;;;59.50;49.25;;;;;7.69;70.40;103556.75;5052199;28;49836;-69
2021/12/17 02:07:31;;;;;;;;;61.00;45.50;;;;;7.09;71.14;103446.72;5047508;28;49924;-69
2021/12/17 02:29:08;;;;;;;;;57.50;48.00;;;;;7.46;70.46;103549.78;5051454;28;49547;-69
2021/12/17 02:31:34;;;;;;;;;58.75;47.00;;;;;7.42;70.30;103543.38;5051020;28;50067;-70
2021/12/17 02:34:45;;;;;;;;;64.50;53.75;;;;;7.35;70.69;103530.66;5049942;28;49752;-70
2021/12/17 02:37:00;;;;;;;;;64.75;52.75;;;;;7.46;70.10;103557.63;5047838;28;49905;-70
2021/12/17 02:47:38;;;;;;;;;60.50;50.50;;;;;7.42;70.58;103547.69;5050433;28;49629;-68
2021/12/17 02:50:05;;;;;;;;;57.25;48.75;;;;;7.40;71.15;103544.06;5050617;28;50054;-69
2021/12/17 02:52:34;;;;;;;;;65.00;52.75;;;;;7.39;70.71;103543.16;5050124;28;49934;-69
2021/12/17 02:55:00;;;;;;;;;64.00;51.50;;;;;7.23;70.38;103516.59;5051376;28;49788;-69
2021/12/17 02:57:26;;;;;;;;;59.00;49.25;;;;;7.14;70.72;103503.75;5051542;28;49953;-68
2021/12/17 02:59:52;;;;;;;;;62.75;50.50;;;;;7.21;70.74;103520.81;5051762;28;50005;-69
2021/12/17 03:02:22;;;;;;;;;60.00;49.75;;;;;7.31;70.11;103544.25;5051379;28;50508;-68
2021/12/17 03:04:48;;;;;;;;;58.00;47.25;;;;;7.31;71.27;103540.72;5051346;28;49671;-69
2021/12/17 03:07:14;;;;;;;;;51.00;44.00;;;;;7.32;71.02;103535.59;5050779;28;49677;-69
2021/12/17 03:10:03;;;;;;;;;58.50;46.75;;;;;7.31;71.08;103536.41;5051784;28;49923;-69
2021/12/17 03:12:33;;;;;;;;;56.00;46.00;;;;;7.28;70.83;103530.94;5050664;28;49644;-69
2021/12/17 03:15:11;;;;;;;;;55.25;43.50;;;;;7.12;71.26;103501.78;5051150;28;49851;-69
2021/12/17 03:25:49;;;;;;;;;49.50;44.00;;;;;7.25;72.79;103528.13;5051282;28;49644;-68
2021/12/17 03:28:14;;;;;;;;;55.50;46.00;;;;;6.94;72.83;103467.31;5050920;28;49688;-69
2021/12/17 03:30:40;;;;;;;;;47.75;40.50;;;;;7.28;73.06;103528.34;5050131;28;49932;-69
2021/12/17 03:33:05;;;;;;;;;61.75;44.50;;;;;7.27;72.90;103526.53;5048626;28;50592;-69
2021/12/17 03:35:30;;;;;;;;;55.00;44.00;;;;;7.32;72.60;103524.25;5050159;28;49708;-69
2021/12/17 03:37:56;;;;;;;;;58.75;43.75;;;;;7.10;73.06;103490.31;5051008;28;49944;-69
2021/12/17 03:40:21;;;;;;;;;51.50;40.00;;;;;7.34;72.64;103531.44;5051221;28;49932;-68
2021/12/17 03:42:50;;;;;;;;;48.25;41.00;;;;;7.31;72.54;103525.94;5050535;28;51006;-69
2021/12/17 03:45:18;;;;;;;;;60.75;47.75;;;;;7.30;72.41;103520.63;5050594;28;49871;-68
2021/12/17 03:47:43;;;;;;;;;49.75;42.00;;;;;7.37;72.93;103529.06;5051179;28;49767;-68
2021/12/17 03:50:09;;;;;;;;;60.50;45.75;;;;;7.38;73.16;103536.09;5051022;28;49918;-69
2021/12/17 03:52:34;;;;;;;;;56.75;43.25;;;;;7.36;73.02;103526.31;5050545;28;50241;-69
2021/12/17 03:55:00;;;;;;;;;55.50;42.00;;;;;7.40;72.78;103521.44;5050697;28;49741;-68
2021/12/17 03:57:25;;;;;;;;;56.00;44.50;;;;;7.51;73.00;103537.94;5050427;28;49803;-69
2021/12/17 03:59:51;;;;;;;;;54.50;43.50;;;;;7.07;72.56;103463.97;5050404;28;49650;-69
2021/12/17 04:02:17;;;;;;;;;54.50;42.75;;;;;7.56;72.86;103540.94;5049273;28;49669;-69
2021/12/17 04:04:42;;;;;;;;;49.50;42.00;;;;;7.60;73.46;103548.22;5050560;28;50021;-68
2021/12/17 04:07:08;;;;;;;;;55.00;45.00;;;;;7.65;73.41;103539.03;5050756;28;49728;-68
2021/12/17 04:09:33;;;;;;;;;56.50;44.50;;;;;7.36;73.11;103498.50;5050827;28;49903;-69
2021/12/17 04:12:01;;;;;;;;;59.50;46.50;;;;;7.61;73.47;103542.19;5050034;28;50689;-69
2021/12/17 04:14:34;;;;;;;;;53.50;42.50;;;;;7.58;72.93;103521.97;5050409;28;49807;-69
2021/12/17 04:17:05;;;;;;;;;56.50;44.50;;;;;7.70;73.04;103530.72;5050245;28;49620;-69
2021/12/17 04:19:31;;;;;;;;;58.25;42.00;;;;;7.64;72.95;103513.69;5049750;28;50040;-68
2021/12/17 04:21:57;;;;;;;;;41.50;36.00;;;;;7.39;73.77;103475.19;5050134;28;49716;-68
2021/12/17 04:24:22;;;;;;;;;56.00;42.75;;;;;7.78;73.15;103536.56;5050327;28;49845;-69
2021/12/17 04:26:48;;;;;;;;;53.00;43.00;;;;;7.79;73.14;103520.06;5050134;28;49644;-69
2021/12/17 04:29:14;;;;;;;;;51.50;42.25;;;;;7.55;73.52;103476.38;5050426;28;49940;-69
2021/12/17 04:31:39;;;;;;;;;52.25;41.50;;;;;7.79;73.25;103520.06;5048388;28;50506;-68
2021/12/17 04:34:05;;;;;;;;;52.75;44.00;;;;;7.82;73.60;103517.72;5049915;28;49886;-69
2021/12/17 04:36:34;;;;;;;;;54.00;40.75;;;;;7.85;73.40;103517.94;5050072;28;49788;-69
2021/12/17 04:39:00;;;;;;;;;45.50;39.50;;;;;7.78;73.32;103496.41;5050437;28;49890;-68
2021/12/17 04:44:06;;;;;;;;;44.25;37.25;;;;;7.77;73.71;103473.69;5049909;28;49772;-68
2021/12/17 04:59:52;;;;;;;;;50.50;40.75;;;;;8.08;73.87;103503.94;5053721;28;49983;-69
2021/12/17 05:02:18;;;;;;;;;47.25;41.50;;;;;8.21;73.23;103517.16;5053302;28;50537;-69
2021/12/17 05:04:44;;;;;;;;;49.00;42.25;;;;;7.76;72.54;103428.31;5053333;28;49839;-69
2021/12/17 05:07:13;;;;;;;;;51.25;41.75;;;;;8.27;73.21;103509.75;5053408;28;49704;-71
2021/12/17 05:09:58;;;;;;;;;50.00;39.50;;;;;8.29;73.27;103508.16;5053514;28;49910;-70
2021/12/17 05:20:48;;;;;;;;;50.25;39.25;;;;;8.42;73.17;103507.41;5053282;28;49728;-69
2021/12/17 05:23:14;;;;;;;;;47.75;38.00;;;;;8.39;73.07;103501.00;5053070;28;49703;-68
2021/12/17 05:25:39;;;;;;;;;41.00;37.25;;;;;8.53;73.22;103513.41;5053069;28;49969;-68
2021/12/17 05:28:05;;;;;;;;;39.50;35.00;;;;;8.48;72.60;103506.91;5052807;28;49949;-69
2021/12/17 05:30:32;;;;;;;;;39.75;38.25;;;;;8.57;72.48;103520.66;5053006;28;49684;-68
2021/12/17 05:32:58;;;;;;;;;52.50;41.50;;;;;8.39;72.47;103486.19;5052911;28;49941;-69
2021/12/17 05:35:23;;;;;;;;;44.75;36.75;;;;;8.17;73.16;103433.97;5052979;28;49866;-69
2021/12/17 05:37:49;;;;;;;;;45.25;38.50;;;;;8.65;72.68;103518.63;5052938;28;50191;-68
2021/12/17 05:40:15;;;;;;;;;46.75;40.75;;;;;8.67;73.10;103514.41;5053135;28;49781;-69
2021/12/17 05:42:42;;;;;;;;;47.00;37.50;;;;;8.16;73.14;103419.06;5054959;28;50556;-71
2021/12/17 05:45:21;;;;;;;;;40.50;37.50;;;;;8.63;72.20;103501.91;5052645;28;49800;-69
2021/12/17 05:47:46;;;;;;;;;46.75;39.50;;;;;8.59;72.71;103506.00;5052293;28;49757;-69
2021/12/17 05:50:12;;;;;;;;;48.25;39.75;;;;;8.41;72.56;103473.25;5052805;28;49854;-70
2021/12/17 05:52:37;;;;;;;;;37.75;35.50;;;;;8.65;72.18;103508.16;5052517;28;50655;-68
2021/12/17 05:55:06;;;;;;;;;48.25;39.50;;;;;8.70;73.11;103506.78;5052150;28;49910;-70
2021/12/17 05:57:31;;;;;;;;;42.50;37.00;;;;;8.66;72.75;103503.00;5052375;28;49746;-68
2021/12/17 05:59:57;;;;;;;;;55.00;36.75;;;;;8.70;72.37;103512.03;5052627;28;49751;-67
2021/12/17 06:02:22;;;;;;;;;41.50;36.50;;;;;8.41;72.51;103463.69;5052256;28;50643;-68
2021/12/17 06:04:47;;;;;;;;;44.25;39.25;;;;;8.64;72.14;103507.25;5033149;28;49972;-67
2021/12/17 06:07:13;;;;;;;;;42.75;37.75;;;;;8.56;72.34;103487.44;5051744;28;49608;-68
2021/12/17 06:09:39;;;;;;;;;41.25;34.75;;;;;8.61;72.08;103496.56;5052526;28;50008;-69
2021/12/17 06:12:04;;;;;;;;;44.50;37.75;;;;;8.63;73.11;103502.81;5052023;28;50398;-67
2021/12/17 06:14:30;;;;;;;;;42.25;36.50;;;;;8.68;73.31;103508.34;5052109;28;49700;-67
2021/12/17 06:16:56;;;;;;;;;48.75;40.25;;;;;8.70;73.17;103504.16;5059453;28;49707;-64
2021/12/17 06:19:22;;;;;;;;;36.50;36.00;;;;;8.03;72.83;103411.16;5069391;28;49361;-64
2021/12/17 06:21:48;;;;;;;;;39.00;36.25;;;;;8.74;72.16;103509.72;5069690;28;50407;-65
2021/12/17 06:24:13;;;;;;;;;47.50;39.00;;;;;8.56;72.50;103487.44;5068129;28;49781;-66
2021/12/17 06:26:39;;;;;;;;;37.00;32.50;;;;;8.56;72.60;103487.44;5051830;28;49773;-66
2021/12/17 06:29:04;;;;;;;;;41.75;38.75;;;;;8.42;72.97;103464.59;5052232;28;50049;-67
2021/12/17 06:31:29;;;;;;;;;48.25;40.75;;;;;8.73;72.85;103512.22;5051252;28;50389;-67
2021/12/17 06:33:55;;;;;;;;;47.25;39.50;;;;;8.45;72.42;103477.91;5051853;28;49846;-66
2021/12/17 06:36:20;;;;;;;;;42.75;35.50;;;;;8.69;73.08;103512.81;5053021;28;49811;-68
2021/12/17 06:38:45;;;;;;;;;44.50;38.75;;;;;8.52;72.63;103485.41;5050951;28;50024;-66
2021/12/17 06:41:11;;;;;;;;;47.25;40.50;;;;;8.67;73.34;103510.06;5050240;28;49775;-68
2021/12/17 06:43:39;;;;;;;;;43.50;38.75;;;;;8.24;72.31;103427.50;5050147;28;49705;-68
2021/12/17 06:46:21;;;;;;;;;41.50;38.50;;;;;8.63;72.89;103504.50;5051508;28;49849;-69
2021/12/17 06:48:48;;;;;;;;;38.00;36.50;;;;;8.52;73.47;103488.94;5051837;28;49948;-68
2021/12/17 06:59:42;;;;;;;;;54.50;42.00;;;;;8.75;73.39;103528.97;5069540;28;49249;-66
2021/12/17 07:34:20;;;;;;;;;49.25;40.00;;;;;8.71;73.15;103501.66;5045066;28;50100;-68
2021/12/17 07:39:17;;;;;;;;;41.75;36.25;;;;;8.78;72.72;103521.31;5050282;28;49890;-68
2021/12/17 07:41:43;;;;;;;;;50.50;41.75;;;;;8.18;72.71;103421.81;5050872;28;49781;-68
2021/12/17 07:44:10;;;;;;;;;48.50;42.25;;;;;8.83;73.51;103541.81;5050676;28;50008;-68
2021/12/17 07:46:35;;;;;;;;;45.75;39.75;;;;;8.88;73.56;103536.91;5050310;28;49970;-68
2021/12/17 07:49:00;;;;;;;;;51.50;41.25;;;;;8.90;72.85;103540.56;5049297;28;50027;-68
2021/12/17 07:51:26;;;;;;;;;42.25;38.25;;;;;8.48;73.06;103486.88;5048936;28;49859;-68
2021/12/17 07:53:53;;;;;;;;;50.25;40.25;;;;;8.84;72.76;103534.84;5048476;28;49743;-68
2021/12/17 07:56:37;;;;;;;;;54.25;43.50;;;;;8.72;73.97;103536.59;5042341;28;49982;-68
2021/12/17 07:59:08;;;;;;;;;55.00;43.25;;;;;8.64;73.69;103504.63;5041640;28;49704;-68
2021/12/17 08:01:35;;;;;;;;;44.25;36.75;;;;;8.62;73.90;103511.47;5041744;28;49992;-68
2021/12/17 08:04:00;;;;;;;;;37.25;35.25;;;;;8.71;72.92;103511.22;5043171;28;49722;-70
2021/12/17 08:06:26;;;;;;;;;54.00;40.25;;;;;8.29;73.62;103433.94;5043086;28;49788;-69
2021/12/17 08:08:52;;;;;;;;;48.50;42.25;;;;;8.83;73.28;103520.84;5043515;28;49731;-70
2021/12/17 08:11:17;;;;;;;;;48.25;40.00;;;;;8.90;73.27;103532.69;5043230;28;50024;-69
2021/12/17 08:13:45;;;;;;;;;55.00;44.75;;;;;8.88;73.49;103526.44;5043178;28;50497;-68
2021/12/17 08:29:50;;;;;;;;;55.75;42.00;;;;;9.01;74.23;103542.22;5038761;28;49582;-68
2021/12/17 08:32:15;;;;;;;;;59.25;44.00;;;;;8.31;73.02;103414.06;5043411;28;49650;-68
2021/12/17 08:34:41;;;;;;;;;46.25;40.25;;;;;9.01;74.08;103538.69;5042927;28;49826;-68
2021/12/17 08:37:06;;;;;;;;;47.25;37.50;;;;;8.94;73.84;103515.47;5043699;28;50084;-68
2021/12/17 08:39:32;;;;;;;;;54.75;41.25;;;;;9.10;73.07;103548.13;5043076;28;49897;-69
2021/12/17 08:41:59;;;;;;;;;43.75;40.25;;;;;9.08;72.75;103535.72;5042967;28;49830;-68
2021/12/17 08:44:25;;;;;;;;;43.25;36.00;;;;;9.10;72.99;103545.50;5042623;28;49843;-68
2021/12/17 08:46:51;;;;;;;;;51.00;41.25;;;;;8.93;73.20;103522.41;5042768;28;49760;-72
2021/12/17 08:49:16;;;;;;;;;49.00;40.75;;;;;9.08;74.16;103544.50;5025132;28;50025;-69
2021/12/17 08:51:45;;;;;;;;;51.75;42.50;;;;;9.03;73.68;103517.03;5042880;28;49953;-70
2021/12/17 17:34:33;;;;;;;;;31.00;29.75;;;;;6.46;78.15;103276.44;5108292;27;50347;-67
2021/12/17 17:36:58;;;;;;;;;55.25;38.00;;;;;6.63;77.98;103247.31;5105536;27;49995;-82
2021/12/17 17:39:23;;;;;;;;;32.75;28.75;;;;;6.57;77.51;103218.19;5109884;27;49832;-72
2021/12/17 17:41:49;;;;;;;;;36.50;31.25;;;;;5.86;77.27;103076.19;5107083;27;50035;-69
2021/12/17 17:44:14;;;;;;;;;39.25;34.75;;;;;6.47;76.93;103159.16;5108207;27;49942;-75
2021/12/17 17:46:40;;;;;;;;;29.25;25.00;;;;;7.58;76.48;103325.91;5107940;27;50210;-75
2021/12/17 17:49:07;;;;;;;;;36.50;30.25;;;;;6.73;76.09;103158.47;5108372;27;49784;-75
2021/12/17 17:51:33;;;;;;;;;41.75;35.50;;;;;6.60;75.26;103148.84;5108087;27;50869;-81
2021/12/17 17:53:58;;;;;;;;;36.25;33.00;;;;;6.53;75.60;103123.06;5108741;27;50040;-75
2021/12/17 17:56:23;;;;;;;;;44.75;37.50;;;;;7.21;75.33;103254.31;5108847;27;50382;-77
2021/12/17 17:58:50;;;;;;;;;42.50;36.00;;;;;6.89;75.00;103182.34;5110190;27;49745;-83
2021/12/17 18:01:16;;;;;;;;;40.00;33.00;;;;;7.36;75.23;103239.78;5111622;27;51483;-78
2021/12/17 18:03:41;;;;;;;;;45.25;37.75;;;;;8.04;74.88;103379.84;5111245;27;49602;-78
2021/12/17 18:06:07;;;;;;;;;48.75;35.75;;;;;6.79;74.70;103132.84;5110224;27;49732;-78
2021/12/17 18:08:32;;;;;;;;;42.00;37.75;;;;;7.05;74.96;103188.69;5110817;27;50451;-78
2021/12/17 18:10:59;;;;;;;;;43.00;39.00;;;;;7.88;74.38;103324.59;5107600;27;50927;-78
2021/12/17 18:13:29;;;;;;;;;43.00;37.75;;;;;8.33;74.33;103391.53;5107207;27;49976;-75
2021/12/17 18:15:57;;;;;;;;;50.25;38.25;;;;;6.85;73.97;103153.25;5107520;27;49556;-75
2021/12/17 18:18:23;;;;;;;;;60.50;42.25;;;;;7.54;74.72;103250.66;5107826;27;50016;-76
2021/12/17 18:20:51;;;;;;;;;43.75;40.00;;;;;7.98;74.80;103332.31;5107255;27;50061;-79
2021/12/17 18:23:17;;;;;;;;;49.25;39.75;;;;;8.11;74.65;103373.38;5106992;27;49782;-75
2021/12/17 18:25:44;;;;;;;;;45.50;38.00;;;;;7.08;74.94;103213.31;5106318;27;49610;-74
2021/12/17 18:28:13;;;;;;;;;53.00;44.00;;;;;7.59;74.65;103285.88;5106417;27;49867;-76
2021/12/17 18:30:39;;;;;;;;;50.50;38.25;;;;;7.29;74.71;103241.81;5107156;27;49745;-78
2021/12/17 18:33:06;;;;;;;;;54.75;44.50;;;;;8.14;74.19;103398.84;5106927;27;49944;-78
2021/12/17 18:35:33;;;;;;;;;50.00;41.00;;;;;8.14;74.79;103367.44;5106887;27;50208;-77
2021/12/17 18:37:59;;;;;;;;;46.25;40.50;;;;;7.65;74.92;103298.50;5107339;27;49778;-73
2021/12/17 18:40:27;;;;;;;;;48.75;39.75;;;;;7.45;74.10;103263.06;5107057;27;50853;-73
2021/12/17 18:45:40;;;;;;;;;47.50;40.00;;;;;7.16;74.35;103246.16;5094206;27;50459;-77
2021/12/17 18:48:11;;;;;;;;;53.00;41.00;;;;;8.27;75.15;103425.09;5092828;27;50047;-73
2021/12/17 18:50:37;;;;;;;;;54.00;41.75;;;;;7.25;75.49;103221.50;5100945;27;50832;-69
2021/12/17 18:53:03;;;;;;;;;55.50;38.00;;;;;7.23;75.19;103237.03;5099642;27;49647;-69
2021/12/17 18:55:28;;;;;;;;;50.00;39.50;;;;;7.57;74.77;103307.50;5092850;27;49746;-77
2021/12/17 18:57:54;;;;;;;;;54.00;43.75;;;;;8.19;75.10;103444.56;5093232;27;50004;-70
2021/12/17 19:00:20;;;;;;;;;59.25;41.00;;;;;6.52;75.48;103134.31;5092433;27;50394;-70
2021/12/17 19:02:45;;;;;;;;;56.50;45.00;;;;;7.75;75.42;103325.44;5090772;27;49914;-71
2021/12/17 19:05:11;;;;;;;;;49.00;41.50;;;;;7.95;75.25;103397.50;5091918;27;49840;-69
2021/12/17 19:07:36;;;;;;;;;56.50;43.25;;;;;7.47;75.03;103298.97;5092929;27;50034;-73
2021/12/17 19:10:04;;;;;;;;;56.50;46.75;;;;;7.80;75.76;103351.00;5096948;27;49877;-68
2021/12/17 19:12:29;;;;;;;;;53.25;39.50;;;;;8.13;75.34;103386.56;5099455;27;49757;-65
2021/12/17 19:14:55;;;;;;;;;51.00;40.50;;;;;8.13;76.45;103381.34;5099019;27;49574;-69
2021/12/17 19:17:20;;;;;;;;;50.25;38.75;;;;;7.97;75.38;103360.97;5091583;27;49774;-79
2021/12/17 19:19:54;;;;;;;;;45.00;37.50;;;;;8.00;75.98;103377.81;5092406;27;51757;-68
2021/12/17 19:22:30;;;;;;;;;57.75;46.50;;;;;7.93;76.24;103354.63;5098998;27;49667;-78
2021/12/17 19:24:56;;;;;;;;;36.75;32.50;;;;;7.71;75.87;103338.16;5092297;27;49798;-75
2021/12/17 19:27:21;;;;;;;;;55.75;42.25;;;;;7.55;75.71;103310.00;5091701;27;50018;-76
2021/12/17 19:29:47;;;;;;;;;52.00;40.75;;;;;7.82;75.95;103345.09;5090783;27;51849;-77
2021/12/17 19:32:12;;;;;;;;;53.00;41.75;;;;;6.91;75.47;103205.03;5092043;27;49762;-76
2021/12/17 19:34:38;;;;;;;;;57.75;40.25;;;;;6.71;75.70;103195.72;5097768;27;50630;-77
2021/12/17 19:37:04;;;;;;;;;57.00;42.25;;;;;7.99;76.26;103410.00;5102282;27;50009;-77
2021/12/17 19:39:29;;;;;;;;;54.25;43.00;;;;;7.01;76.36;103238.88;5101305;27;49719;-77
2021/12/17 19:41:55;;;;;;;;;63.75;47.75;;;;;6.28;75.12;103112.50;5096926;27;49835;-78
2021/12/17 19:44:20;;;;;;;;;50.50;43.50;;;;;6.73;76.23;103202.84;5097887;27;50016;-77
2021/12/17 19:49:44;;;;;;;;;61.75;47.50;;;;;6.82;76.56;103241.81;5079104;27;49842;-78
2021/12/17 19:52:16;;;;;;;;;53.75;44.25;;;;;6.61;76.22;103183.66;5092493;27;49712;-86
2021/12/17 19:54:44;;;;;;;;;56.25;40.75;;;;;7.68;76.44;103421.59;5090226;27;49817;-86
2021/12/17 19:57:09;;;;;;;;;55.75;43.00;;;;;7.09;76.95;103282.16;5089456;27;49584;-83
2021/12/17 19:59:35;;;;;;;;;47.25;41.25;;;;;6.16;77.28;103124.59;5090453;27;51916;-84
2021/12/17 20:02:01;;;;;;;;;50.50;41.25;;;;;7.77;76.78;103451.06;5090468;27;49846;-91
2021/12/17 20:04:30;;;;;;;;;62.00;46.00;;;;;6.53;76.94;103231.75;5092459;27;49937;-83
2021/12/17 20:06:55;;;;;;;;;59.50;48.50;;;;;7.79;76.97;103462.53;5092257;27;49760;-78
2021/12/17 20:09:21;;;;;;;;;59.75;44.25;;;;;7.71;76.87;103435.81;5091596;27;50023;-80
2021/12/17 20:11:47;;;;;;;;;57.75;44.00;;;;;5.49;77.38;103037.66;5090111;27;49921;-79
2021/12/17 20:14:13;;;;;;;;;57.25;43.00;;;;;6.84;76.82;103259.41;5089641;27;49846;-82
2021/12/17 20:16:39;;;;;;;;;55.50;44.50;;;;;7.77;76.80;103444.91;5090802;27;49955;-83
2021/12/17 20:19:07;;;;;;;;;59.00;44.75;;;;;6.08;76.67;103157.03;5090186;27;52530;-77
2021/12/17 20:21:36;;;;;;;;;61.00;47.75;;;;;6.91;76.94;103297.34;5094598;27;49670;-75
2021/12/17 20:24:02;;;;;;;;;72.25;55.25;;;;;6.49;77.39;103208.84;5091941;27;49918;-77
2021/12/17 20:26:28;;;;;;;;;61.00;46.25;;;;;6.46;77.26;103242.50;5090586;27;49837;-70
2021/12/17 20:28:56;;;;;;;;;58.50;46.50;;;;;7.24;77.65;103355.50;5091089;27;49834;-72
2021/12/17 20:31:23;;;;;;;;;60.75;48.75;;;;;6.81;76.95;103287.91;5093834;27;49721;-78
2021/12/17 20:33:51;;;;;;;;;55.75;43.75;;;;;6.85;76.79;103262.91;5091019;27;49995;-76
2021/12/17 20:36:16;;;;;;;;;58.75;45.00;;;;;7.27;76.79;103348.84;5091526;27;49734;-71
2021/12/17 20:38:42;;;;;;;;;57.50;45.50;;;;;7.79;76.71;103427.63;5091227;27;50155;-68
2021/12/17 20:41:08;;;;;;;;;56.75;43.25;;;;;7.78;76.38;103433.66;5090819;27;49817;-68
2021/12/17 20:43:46;;;;;;;;;57.75;42.75;;;;;7.70;76.60;103427.84;5091276;27;49938;-68
2021/12/17 20:46:15;;;;;;;;;59.50;49.50;;;;;7.45;76.09;103385.91;5090089;27;49868;-69
2021/12/17 20:48:42;;;;;;;;;57.75;44.75;;;;;7.73;76.26;103438.56;5090957;27;50514;-68
2021/12/17 20:51:09;;;;;;;;;58.50;44.75;;;;;7.23;76.18;103338.03;5090468;27;49770;-68
2021/12/17 20:53:35;;;;;;;;;59.75;48.25;;;;;7.72;76.12;103434.09;5099159;27;49943;-67
2021/12/17 20:56:00;;;;;;;;;60.00;47.50;;;;;7.72;76.66;103436.72;5090880;27;49669;-67
2021/12/17 20:58:27;;;;;;;;;59.25;45.50;;;;;7.65;76.17;103416.16;5090815;27;50797;-67
2021/12/17 21:00:53;;;;;;;;;54.50;45.50;;;;;7.30;76.25;103354.28;5090484;27;49628;-66
2021/12/17 21:03:19;;;;;;;;;58.75;45.00;;;;;7.54;75.68;103409.22;5089371;27;49975;-69
2021/12/17 21:05:47;;;;;;;;;59.25;45.75;;;;;7.70;75.96;103427.84;5091248;27;49936;-67
2021/12/17 21:08:15;;;;;;;;;52.25;44.25;;;;;7.65;76.54;103431.84;5090483;27;50354;-66
2021/12/17 21:10:42;;;;;;;;;45.25;40.75;;;;;7.65;75.78;103427.53;5090581;27;49603;-69
2021/12/17 21:13:09;;;;;;;;;60.75;44.50;;;;;7.14;76.09;103347.03;5090891;27;49822;-67
2021/12/17 21:15:41;;;;;;;;;62.25;45.75;;;;;7.50;76.52;103409.75;5089434;27;49701;-67
2021/12/17 21:18:08;;;;;;;;;55.50;44.75;;;;;7.58;76.20;103421.72;5093616;27;49670;-68
2021/12/17 21:20:38;;;;;;;;;54.25;44.00;;;;;7.58;76.07;103413.88;5089006;27;49758;-68
2021/12/17 21:23:04;;;;;;;;;58.00;46.75;;;;;7.51;76.16;103407.25;5087253;27;49868;-68
2021/12/17 21:25:31;;;;;;;;;55.25;44.50;;;;;7.51;75.98;103416.81;5088953;27;49719;-68
2021/12/17 21:27:57;;;;;;;;;49.75;41.00;;;;;7.54;75.52;103427.50;5090033;27;51065;-70
2021/12/17 21:30:23;;;;;;;;;58.75;45.25;;;;;7.49;76.62;103421.00;5096031;27;50064;-68
2021/12/17 21:32:49;;;;;;;;;56.00;44.75;;;;;7.16;75.75;103371.56;5087119;27;50185;-67
2021/12/17 21:35:20;;;;;;;;;54.75;43.75;;;;;7.02;75.80;103343.44;5088877;27;49861;-66
2021/12/17 21:37:52;;;;;;;;;54.00;40.75;;;;;7.10;75.90;103363.22;5089246;27;49780;-67
2021/12/17 21:40:19;;;;;;;;;57.50;44.25;;;;;7.34;76.39;103403.41;5090525;27;49707;-67
2021/12/17 21:42:45;;;;;;;;;46.00;39.75;;;;;7.13;75.76;103365.16;5090534;27;50067;-68
2021/12/17 21:45:12;;;;;;;;;47.25;41.00;;;;;7.11;75.24;103366.75;5090304;27;49775;-68
2021/12/17 21:47:38;;;;;;;;;54.50;43.00;;;;;7.46;75.82;103440.91;5089881;27;50348;-68
2021/12/17 21:50:07;;;;;;;;;59.00;45.50;;;;;7.46;75.67;103435.69;5090306;27;49609;-67
2021/12/17 21:52:33;;;;;;;;;63.00;47.25;;;;;7.50;75.25;103435.91;5089928;27;49860;-68
2021/12/17 21:54:59;;;;;;;;;44.00;40.00;;;;;6.92;75.07;103343.53;5090257;27;49807;-68
2021/12/17 21:57:24;;;;;;;;;49.50;43.25;;;;;7.46;75.05;103435.69;5089735;27;50684;-68
2021/12/17 21:59:50;;;;;;;;;41.50;37.25;;;;;7.42;75.75;103431.00;5090402;27;49738;-67
2021/12/17 22:02:15;;;;;;;;;46.75;38.25;;;;;7.42;75.80;103436.22;5090534;27;50033;-67
2021/12/17 22:04:41;;;;;;;;;46.00;38.50;;;;;7.34;74.58;103426.91;5090138;27;50268;-67
2021/12/17 22:07:08;;;;;;;;;55.00;41.25;;;;;7.31;75.28;103420.53;5092972;27;50810;-67
2021/12/17 22:09:37;;;;;;;;;52.75;41.00;;;;;7.03;74.55;103360.03;5089570;27;49905;-68
2021/12/17 22:12:07;;;;;;;;;46.50;37.50;;;;;7.40;74.87;103431.69;5081695;27;50138;-68
2021/12/17 22:14:33;;;;;;;;;45.75;40.50;;;;;7.14;74.71;103382.66;5081420;27;50053;-68
2021/12/17 22:16:58;;;;;;;;;41.00;38.00;;;;;7.23;74.90;103399.03;5080629;27;50199;-68
2021/12/17 22:19:27;;;;;;;;;45.50;38.50;;;;;7.35;74.88;103426.13;5094879;27;49754;-68
2021/12/17 22:21:58;;;;;;;;;45.75;39.50;;;;;6.92;74.66;103346.16;5099233;27;49783;-66
2021/12/17 22:24:24;;;;;;;;;39.75;36.00;;;;;7.38;74.65;103423.72;5089311;27;50185;-67
2021/12/17 22:26:50;;;;;;;;;31.25;29.75;;;;;7.21;74.50;103405.84;5090525;27;50782;-68
2021/12/17 22:29:15;;;;;;;;;44.25;40.00;;;;;7.37;74.39;103415.78;5092340;27;49916;-68
2021/12/17 22:31:41;;;;;;;;;50.00;42.00;;;;;7.35;74.63;103427.81;5091740;27;49793;-68
2021/12/17 22:34:07;;;;;;;;;44.25;37.25;;;;;7.31;74.04;103415.28;5092794;27;50180;-68
2021/12/17 22:36:32;;;;;;;;;46.50;39.25;;;;;7.36;74.44;103427.03;5091165;27;51065;-67
2021/12/17 22:38:58;;;;;;;;;42.50;38.00;;;;;7.30;74.20;103411.78;5092362;27;49810;-68
2021/12/17 22:41:40;;;;;;;;;41.00;35.25;;;;;7.35;74.14;103431.34;5092108;27;49813;-67
2021/12/17 22:44:06;;;;;;;;;47.75;38.50;;;;;7.25;74.25;103414.84;5093542;27;49638;-68
2021/12/17 22:46:32;;;;;;;;;53.75;38.50;;;;;7.02;73.88;103368.66;5092330;27;50118;-68
2021/12/17 22:48:57;;;;;;;;;40.00;34.00;;;;;7.36;73.51;103434.88;5092404;27;49888;-68
2021/12/17 22:51:23;;;;;;;;;44.50;37.25;;;;;7.30;73.90;103427.44;5093325;27;49688;-66
2021/12/17 22:53:50;;;;;;;;;49.50;41.00;;;;;7.28;73.91;103433.38;5092321;27;49869;-67
2021/12/17 22:56:15;;;;;;;;;42.00;35.00;;;;;7.28;73.90;103429.03;5091704;27;49942;-67
2021/12/17 22:58:41;;;;;;;;;48.50;42.00;;;;;7.14;73.47;103407.09;5092837;27;49790;-67